Oak Creek, Utah
Current Conditions -  °F | °C
As of 10:35 PM on Tuesday 25 Nov 2014 (Local Time) from KPVU Reporting Station
Overcast Overcast  
Wind Chill: 36°   Ceiling: 6000
Heat Index: 36°   Visibility: 10mi
Dew Point: 28°   Wind: 3mph
Humidity: 75%   Direction: 330°NNW
Pressure: 30.35"   Gusts: NA
Location:  39.7497°N, 111.442°W
Report Text: KPVU 260535Z 33003KT 10SM OVC060 02/M02 A3035 RMK AO1
Loading
Personal Weather Stations






























Interactive Weather Map New forecast layout! Learn more

10-Day Weather Forecast

Advertisements
Track Severe Weather on mobile